La rose des vents
Donnes mto: Semaine 07/05/07 - 13/05/07 (S 19)
Date Horaire Temp. E. Hum. E. P.atmo. Pluie Vent 1mn Direction Ensoleilleme Ev.Tr. Solaire P. de rose Temp au vent Rafales
07/05/2007 00:00 14,8 C 76 % 1011,7 hPa 0,0 l/m 3,8 km/h (1 Bft) NO 0,00 h 0,025 mm 0 W/m 10,5 C 14,8 C 5,9 km/h (2 Bft)
07/05/2007 01:00 14,2 C 75 % 1012,3 hPa 0,0 l/m 4,0 km/h (1 Bft) N-NO 0,00 h 0,025 mm 0 W/m 9,8 C 14,2 C 7,1 km/h (2 Bft)
07/05/2007 02:00 14,9 C 68 % 1012,0 hPa 0,0 l/m 4,1 km/h (1 Bft) O-NO 0,00 h 0,025 mm 0 W/m 9,0 C 14,9 C 6,8 km/h (2 Bft)
07/05/2007 03:00 14,8 C 67 % 1011,8 hPa 0,0 l/m 7,4 km/h (2 Bft) O-NO 0,00 h 0,051 mm 0 W/m 8,7 C 14,8 C 10,8 km/h (2 Bft)
07/05/2007 04:00 15,0 C 64 % 1011,9 hPa 0,0 l/m 6,3 km/h (2 Bft) O-NO 0,00 h 0,051 mm 0 W/m 8,2 C 15,0 C 9,6 km/h (2 Bft)
07/05/2007 05:00 14,9 C 62 % 1011,9 hPa 0,0 l/m 1,0 km/h (0 Bft) NO 0,00 h 0,051 mm 0 W/m 7,6 C 14,9 C 2,2 km/h (1 Bft)
07/05/2007 06:00 14,9 C 60 % 1012,4 hPa 0,0 l/m 1,7 km/h (1 Bft) O 0,03 h 0,025 mm 14 W/m 7,1 C 14,9 C 2,8 km/h (1 Bft)
07/05/2007 07:00 15,8 C 58 % 1013,0 hPa 0,0 l/m 1,7 km/h (1 Bft) O-NO 0,42 h 0,025 mm 101 W/m 7,6 C 15,8 C 3,1 km/h (1 Bft)
07/05/2007 08:00 18,8 C 55 % 1013,5 hPa 0,0 l/m 0,1 km/h (0 Bft) O-NO 1,00 h 0,076 mm 325 W/m 9,6 C 18,8 C 0,8 km/h (0 Bft)
07/05/2007 09:00 20,8 C 49 % 1014,1 hPa 0,0 l/m 1,4 km/h (1 Bft) S 1,00 h 0,203 mm 502 W/m 9,7 C 20,8 C 2,9 km/h (1 Bft)
07/05/2007 10:00 22,2 C 43 % 1014,5 hPa 0,0 l/m 4,3 km/h (1 Bft) S 1,00 h 0,305 mm 658 W/m 9,1 C 22,2 C 6,9 km/h (2 Bft)
07/05/2007 11:00 23,9 C 36 % 1014,6 hPa 0,0 l/m 5,3 km/h (1 Bft) S 1,00 h 0,432 mm 775 W/m 8,0 C 23,9 C 9,3 km/h (2 Bft)
07/05/2007 12:00 24,5 C 33 % 1014,7 hPa 0,0 l/m 11,7 km/h (2 Bft) S 1,00 h 0,533 mm 848 W/m 7,0 C 24,5 C 17,2 km/h (3 Bft)
07/05/2007 13:00 24,5 C 31 % 1014,5 hPa 0,0 l/m 17,0 km/h (3 Bft) S-SE 1,00 h 0,660 mm 847 W/m 6,5 C 24,5 C 23,4 km/h (4 Bft)
07/05/2007 14:00 24,6 C 31 % 1014,5 hPa 0,0 l/m 16,2 km/h (3 Bft) S-SE 1,00 h 0,711 mm 870 W/m 6,4 C 24,6 C 23,4 km/h (4 Bft)
07/05/2007 15:00 23,9 C 36 % 1014,4 hPa 0,0 l/m 15,5 km/h (3 Bft) S 0,55 h 0,711 mm 513 W/m 7,7 C 23,9 C 21,6 km/h (4 Bft)
07/05/2007 16:00 22,8 C 42 % 1014,4 hPa 0,0 l/m 8,6 km/h (2 Bft) S-SE 0,57 h 0,483 mm 397 W/m 9,3 C 22,8 C 13,7 km/h (3 Bft)
07/05/2007 17:00 22,3 C 49 % 1014,4 hPa 0,0 l/m 4,3 km/h (1 Bft) E 0,58 h 0,330 mm 339 W/m 11,0 C 22,3 C 7,2 km/h (2 Bft)
07/05/2007 18:00 21,8 C 58 % 1014,3 hPa 0,0 l/m 3,0 km/h (1 Bft) E 0,60 h 0,254 mm 248 W/m 13,0 C 21,8 C 4,9 km/h (1 Bft)
07/05/2007 19:00 20,7 C 62 % 1013,8 hPa 0,0 l/m 0,1 km/h (0 Bft) E 0,75 h 0,178 mm 124 W/m 13,1 C 20,7 C 0,8 km/h (0 Bft)
07/05/2007 20:00 18,3 C 69 % 1013,6 hPa 0,0 l/m 1,8 km/h (1 Bft) E-NE 0,03 h 0,076 mm 16 W/m 12,4 C 18,3 C 3,2 km/h (1 Bft)
07/05/2007 21:00 16,7 C 73 % 1013,8 hPa 0,0 l/m 0,7 km/h (0 Bft) N-NE 0,00 h 0,025 mm 0 W/m 11,8 C 16,7 C 2,1 km/h (1 Bft)
07/05/2007 22:00 15,5 C 71 % 1013,9 hPa 0,0 l/m 0,3 km/h (0 Bft) N-NE 0,00 h 0,000 mm 0 W/m 10,2 C 15,5 C 1,2 km/h (1 Bft)
07/05/2007 23:00 16,1 C 65 % 1013,8 hPa 0,0 l/m 2,9 km/h (1 Bft) O 0,00 h 0,025 mm 0 W/m 9,6 C 16,1 C 4,1 km/h (1 Bft)
08/05/2007 00:00 15,7 C 65 % 1013,3 hPa 0,0 l/m 3,0 km/h (1 Bft) O 0,00 h 0,051 mm 0 W/m 9,3 C 15,7 C 4,9 km/h (1 Bft)
08/05/2007 01:00 15,3 C 67 % 1013,2 hPa 0,0 l/m 3,9 km/h (1 Bft) N-NO 0,00 h 0,051 mm 0 W/m 9,1 C 15,3 C 6,2 km/h (2 Bft)
08/05/2007 02:00 15,4 C 65 % 1012,8 hPa 0,0 l/m 1,5 km/h (1 Bft) N-NO 0,00 h 0,051 mm 0 W/m 8,8 C 15,4 C 2,3 km/h (1 Bft)
08/05/2007 03:00 15,9 C 62 % 1012,8 hPa 0,0 l/m 2,0 km/h (1 Bft) O 0,00 h 0,025 mm 0 W/m 8,6 C 15,9 C 3,3 km/h (1 Bft)
08/05/2007 04:00 14,8 C 66 % 1013,0 hPa 0,0 l/m 2,3 km/h (1 Bft) S-SO 0,00 h 0,051 mm 0 W/m 8,6 C 14,8 C 3,9 km/h (1 Bft)
08/05/2007 05:00 13,9 C 71 % 1013,2 hPa 0,0 l/m 1,7 km/h (1 Bft) SE 0,00 h 0,025 mm 0 W/m 8,7 C 13,9 C 2,6 km/h (1 Bft)
08/05/2007 06:00 13,9 C 71 % 1013,4 hPa 0,0 l/m 3,2 km/h (1 Bft) SO 0,00 h 0,025 mm 16 W/m 8,8 C 13,9 C 4,2 km/h (1 Bft)
08/05/2007 07:00 15,4 C 68 % 1013,9 hPa 0,0 l/m 1,9 km/h (1 Bft) O-SO 0,42 h 0,025 mm 101 W/m 9,5 C 15,4 C 3,3 km/h (1 Bft)
08/05/2007 08:00 18,0 C 61 % 1014,6 hPa 0,0 l/m 3,1 km/h (1 Bft) O-SO 1,00 h 0,076 mm 321 W/m 10,3 C 18,0 C 5,1 km/h (1 Bft)
08/05/2007 09:00 19,9 C 56 % 1014,8 hPa 0,0 l/m 3,6 km/h (1 Bft) S 1,00 h 0,203 mm 500 W/m 10,8 C 19,9 C 6,3 km/h (2 Bft)
08/05/2007 10:00 21,5 C 53 % 1014,7 hPa 0,0 l/m 4,1 km/h (1 Bft) S 1,00 h 0,305 mm 658 W/m 11,6 C 21,5 C 7,5 km/h (2 Bft)
08/05/2007 11:00 22,5 C 57 % 1015,0 hPa 0,0 l/m 9,3 km/h (2 Bft) E 1,00 h 0,432 mm 777 W/m 13,4 C 22,5 C 13,7 km/h (3 Bft)
08/05/2007 12:00 21,8 C 63 % 1015,4 hPa 0,0 l/m 9,6 km/h (2 Bft) E 1,00 h 0,533 mm 854 W/m 14,5 C 21,8 C 14,1 km/h (3 Bft)
08/05/2007 13:00 21,9 C 65 % 1015,1 hPa 0,0 l/m 7,7 km/h (2 Bft) E 1,00 h 0,559 mm 867 W/m 15,0 C 21,9 C 12,7 km/h (3 Bft)
08/05/2007 14:00 22,1 C 66 % 1014,9 hPa 0,0 l/m 7,6 km/h (2 Bft) E 1,00 h 0,559 mm 828 W/m 15,3 C 22,1 C 12,5 km/h (3 Bft)
08/05/2007 15:00 22,2 C 63 % 1014,5 hPa 0,0 l/m 9,4 km/h (2 Bft) E 1,00 h 0,533 mm 734 W/m 14,8 C 22,2 C 13,9 km/h (3 Bft)
08/05/2007 16:00 22,0 C 63 % 1014,4 hPa 0,0 l/m 7,1 km/h (2 Bft) E 1,00 h 0,483 mm 637 W/m 14,7 C 22,0 C 11,4 km/h (2 Bft)
08/05/2007 17:00 21,6 C 64 % 1014,2 hPa 0,0 l/m 7,1 km/h (2 Bft) E-NE 1,00 h 0,432 mm 460 W/m 14,4 C 21,6 C 10,3 km/h (2 Bft)
08/05/2007 18:00 21,5 C 65 % 1014,0 hPa 0,0 l/m 3,0 km/h (1 Bft) E 1,00 h 0,305 mm 296 W/m 14,7 C 21,5 C 5,4 km/h (1 Bft)
08/05/2007 19:00 20,5 C 71 % 1013,7 hPa 0,0 l/m 1,7 km/h (1 Bft) E-NE 0,83 h 0,203 mm 128 W/m 14,9 C 20,5 C 3,1 km/h (1 Bft)
08/05/2007 20:00 18,1 C 80 % 1013,6 hPa 0,0 l/m 0,1 km/h (0 Bft) E-NE 0,03 h 0,076 mm 15 W/m 14,6 C 18,1 C 0,2 km/h (0 Bft)
08/05/2007 21:00 16,9 C 85 % 1013,6 hPa 0,0 l/m 1,8 km/h (1 Bft) S-SE 0,00 h 0,000 mm 0 W/m 14,3 C 16,9 C 2,8 km/h (1 Bft)
08/05/2007 22:00 16,1 C 86 % 1014,0 hPa 0,0 l/m 0,9 km/h (0 Bft) SE 0,00 h 0,000 mm 0 W/m 13,7 C 16,1 C 1,6 km/h (1 Bft)
08/05/2007 23:00 15,6 C 88 % 1014,1 hPa 0,0 l/m 1,9 km/h (1 Bft) O-SO 0,00 h 0,025 mm 0 W/m 13,6 C 15,6 C 3,0 km/h (1 Bft)
09/05/2007 00:00 15,6 C 90 % 1014,3 hPa 0,0 l/m 1,5 km/h (1 Bft) S-SO 0,00 h 0,025 mm 0 W/m 14,0 C 15,6 C 2,4 km/h (1 Bft)
09/05/2007 01:00 15,7 C 93 % 1014,4 hPa 0,0 l/m 0,7 km/h (0 Bft) S-SO 0,00 h 0,025 mm 0 W/m 14,5 C 15,7 C 1,7 km/h (1 Bft)
09/05/2007 02:00 15,5 C 94 % 1014,2 hPa 0,0 l/m 4,7 km/h (1 Bft) O 0,00 h 0,000 mm 0 W/m 14,5 C 15,5 C 6,3 km/h (2 Bft)
09/05/2007 03:00 15,4 C 95 % 1013,8 hPa 0,0 l/m 5,1 km/h (1 Bft) O-SO 0,00 h 0,025 mm 0 W/m 14,5 C 15,4 C 7,2 km/h (2 Bft)
09/05/2007 04:00 15,1 C 95 % 1013,6 hPa 0,0 l/m 6,1 km/h (2 Bft) O 0,00 h 0,025 mm 0 W/m 14,4 C 15,1 C 8,6 km/h (2 Bft)
09/05/2007 05:00 14,6 C 95 % 1013,4 hPa 0,0 l/m 5,9 km/h (2 Bft) O 0,00 h 0,025 mm 0 W/m 13,9 C 14,6 C 7,9 km/h (2 Bft)
09/05/2007 06:00 14,2 C 95 % 1013,5 hPa 0,0 l/m 7,5 km/h (2 Bft) O-NO 0,00 h 0,000 mm 17 W/m 13,4 C 14,2 C 10,5 km/h (2 Bft)
09/05/2007 07:00 14,9 C 95 % 1014,0 hPa 0,0 l/m 4,1 km/h (1 Bft) O-NO 0,40 h 0,025 mm 104 W/m 14,1 C 14,9 C 6,3 km/h (2 Bft)
09/05/2007 08:00 17,1 C 89 % 1014,5 hPa 0,0 l/m 4,1 km/h (1 Bft) SO 1,00 h 0,051 mm 297 W/m 15,3 C 17,1 C 6,1 km/h (2 Bft)
09/05/2007 09:00 18,8 C 80 % 1014,6 hPa 0,0 l/m 6,9 km/h (2 Bft) S-SO 0,95 h 0,178 mm 470 W/m 15,2 C 18,8 C 10,1 km/h (2 Bft)
09/05/2007 10:00 20,7 C 70 % 1014,7 hPa 0,0 l/m 4,9 km/h (1 Bft) S 1,00 h 0,279 mm 640 W/m 15,1 C 20,7 C 8,2 km/h (2 Bft)
09/05/2007 11:00 22,0 C 72 % 1014,8 hPa 0,0 l/m 9,3 km/h (2 Bft) E 1,00 h 0,406 mm 769 W/m 16,6 C 22,0 C 14,2 km/h (3 Bft)
09/05/2007 12:00 22,3 C 68 % 1015,0 hPa 0,0 l/m 9,1 km/h (2 Bft) E 1,00 h 0,508 mm 843 W/m 16,0 C 22,3 C 14,4 km/h (3 Bft)
09/05/2007 13:00 21,8 C 71 % 1014,9 hPa 0,0 l/m 11,0 km/h (2 Bft) E 0,95 h 0,559 mm 833 W/m 16,2 C 21,8 C 16,4 km/h (3 Bft)
09/05/2007 14:00 21,7 C 72 % 1014,8 hPa 0,0 l/m 10,6 km/h (2 Bft) E 1,00 h 0,559 mm 855 W/m 16,3 C 21,7 C 15,7 km/h (3 Bft)
09/05/2007 15:00 21,6 C 73 % 1014,7 hPa 0,0 l/m 9,0 km/h (2 Bft) E 0,92 h 0,559 mm 802 W/m 16,6 C 21,6 C 14,0 km/h (3 Bft)
09/05/2007 16:00 20,7 C 76 % 1014,2 hPa 0,0 l/m 8,0 km/h (2 Bft) E 0,73 h 0,508 mm 520 W/m 16,4 C 20,7 C 12,6 km/h (3 Bft)
09/05/2007 17:00 20,2 C 76 % 1014,0 hPa 0,0 l/m 6,7 km/h (2 Bft) E 0,37 h 0,330 mm 330 W/m 15,8 C 20,2 C 10,1 km/h (2 Bft)
09/05/2007 18:00 19,1 C 79 % 1014,1 hPa 0,0 l/m 5,3 km/h (1 Bft) E 0,00 h 0,229 mm 131 W/m 15,4 C 19,1 C 8,6 km/h (2 Bft)
09/05/2007 19:00 18,4 C 81 % 1014,0 hPa 0,0 l/m 2,4 km/h (1 Bft) E 0,10 h 0,102 mm 78 W/m 15,0 C 18,4 C 4,7 km/h (1 Bft)
09/05/2007 20:00 17,3 C 87 % 1014,1 hPa 0,0 l/m 0,9 km/h (0 Bft) SE 0,03 h 0,051 mm 17 W/m 15,1 C 17,3 C 2,7 km/h (1 Bft)
09/05/2007 21:00 16,6 C 91 % 1014,6 hPa 0,0 l/m 0,6 km/h (0 Bft) E-SE 0,00 h 0,025 mm 0 W/m 15,1 C 16,6 C 1,9 km/h (1 Bft)
09/05/2007 22:00 16,1 C 92 % 1015,0 hPa 0,0 l/m 0,3 km/h (0 Bft) SE 0,00 h 0,000 mm 0 W/m 14,7 C 16,1 C 0,8 km/h (0 Bft)
09/05/2007 23:00 16,0 C 93 % 1015,1 hPa 0,0 l/m 1,7 km/h (1 Bft) SO 0,00 h 0,000 mm 0 W/m 14,8 C 16,0 C 2,9 km/h (1 Bft)
10/05/2007 00:00 16,0 C 93 % 1015,4 hPa 0,0 l/m 1,7 km/h (1 Bft) SO 0,00 h 0,025 mm 0 W/m 15,0 C 16,0 C 3,5 km/h (1 Bft)
10/05/2007 01:00 16,2 C 94 % 1015,5 hPa 0,0 l/m 1,9 km/h (1 Bft) O-NO 0,00 h 0,000 mm 0 W/m 15,2 C 16,2 C 3,3 km/h (1 Bft)
10/05/2007 02:00 15,9 C 93 % 1015,5 hPa 0,0 l/m 5,7 km/h (1 Bft) O-NO 0,00 h 0,000 mm 0 W/m 14,7 C 15,9 C 7,9 km/h (2 Bft)
10/05/2007 03:00 15,2 C 93 % 1015,0 hPa 0,0 l/m 7,0 km/h (2 Bft) O-NO 0,00 h 0,025 mm 0 W/m 14,1 C 15,2 C 9,7 km/h (2 Bft)
10/05/2007 04:00 14,4 C 94 % 1015,1 hPa 0,0 l/m 5,6 km/h (1 Bft) O-NO 0,00 h 0,025 mm 0 W/m 13,4 C 14,4 C 7,7 km/h (2 Bft)
10/05/2007 05:00 14,2 C 94 % 1015,2 hPa 0,0 l/m 6,1 km/h (2 Bft) O-NO 0,00 h 0,025 mm 0 W/m 13,3 C 14,2 C 8,3 km/h (2 Bft)
10/05/2007 06:00 14,1 C 95 % 1015,5 hPa 0,0 l/m 5,6 km/h (1 Bft) O-NO 0,00 h 0,000 mm 20 W/m 13,3 C 14,1 C 7,8 km/h (2 Bft)
10/05/2007 07:00 14,4 C 95 % 1015,8 hPa 0,0 l/m 3,3 km/h (1 Bft) O-NO 0,05 h 0,025 mm 82 W/m 13,6 C 14,4 C 4,9 km/h (1 Bft)
10/05/2007 08:00 16,8 C 89 % 1016,1 hPa 0,0 l/m 1,2 km/h (1 Bft) O-NO 1,00 h 0,051 mm 345 W/m 15,0 C 16,8 C 2,8 km/h (1 Bft)
10/05/2007 09:00 19,3 C 77 % 1016,1 hPa 0,0 l/m 3,0 km/h (1 Bft) S 1,00 h 0,178 mm 520 W/m 15,1 C 19,3 C 6,0 km/h (2 Bft)
10/05/2007 10:00 19,9 C 76 % 1016,4 hPa 0,0 l/m 6,0 km/h (2 Bft) E 0,50 h 0,305 mm 444 W/m 15,6 C 19,9 C 10,1 km/h (2 Bft)
10/05/2007 11:00 21,0 C 68 % 1016,6 hPa 0,0 l/m 6,9 km/h (2 Bft) S 1,00 h 0,279 mm 789 W/m 14,9 C 21,0 C 11,5 km/h (2 Bft)
10/05/2007 12:00 22,0 C 67 % 1016,5 hPa 0,0 l/m 9,1 km/h (2 Bft) E 1,00 h 0,508 mm 859 W/m 15,4 C 22,0 C 14,2 km/h (3 Bft)
10/05/2007 13:00 22,2 C 67 % 1016,2 hPa 0,0 l/m 8,5 km/h (2 Bft) E 1,00 h 0,559 mm 887 W/m 15,8 C 22,2 C 14,1 km/h (3 Bft)
10/05/2007 14:00 22,4 C 66 % 1015,8 hPa 0,0 l/m 7,0 km/h (2 Bft) E 1,00 h 0,559 mm 852 W/m 15,8 C 22,4 C 13,0 km/h (3 Bft)
10/05/2007 15:00 22,0 C 66 % 1015,6 hPa 0,0 l/m 8,1 km/h (2 Bft) E 1,00 h 0,559 mm 764 W/m 15,3 C 22,0 C 13,8 km/h (3 Bft)
10/05/2007 16:00 21,7 C 67 % 1015,2 hPa 0,0 l/m 9,2 km/h (2 Bft) E 1,00 h 0,508 mm 622 W/m 15,4 C 21,7 C 14,8 km/h (3 Bft)
10/05/2007 17:00 20,4 C 72 % 1015,1 hPa 0,0 l/m 5,9 km/h (2 Bft) E 0,25 h 0,406 mm 251 W/m 15,2 C 20,4 C 10,1 km/h (2 Bft)
10/05/2007 18:00 19,3 C 78 % 1015,1 hPa 0,0 l/m 4,3 km/h (1 Bft) E 0,00 h 0,178 mm 84 W/m 15,2 C 19,3 C 7,3 km/h (2 Bft)
10/05/2007 19:00 18,5 C 80 % 1014,9 hPa 0,0 l/m 3,1 km/h (1 Bft) S 0,00 h 0,076 mm 24 W/m 15,0 C 18,5 C 5,8 km/h (2 Bft)
10/05/2007 20:00 18,1 C 81 % 1014,8 hPa 0,0 l/m 4,0 km/h (1 Bft) S-SE 0,00 h 0,025 mm 9 W/m 14,7 C 18,1 C 5,9 km/h (2 Bft)
10/05/2007 21:00 17,8 C 84 % 1015,0 hPa 0,0 l/m 2,1 km/h (1 Bft) S-SO 0,00 h 0,025 mm 0 W/m 15,1 C 17,8 C 4,0 km/h (1 Bft)
10/05/2007 22:00 17,6 C 85 % 1015,3 hPa 0,0 l/m 0,2 km/h (0 Bft) S-SO 0,00 h 0,025 mm 0 W/m 15,1 C 17,6 C 0,6 km/h (0 Bft)
10/05/2007 23:00 17,2 C 86 % 1015,2 hPa 0,0 l/m 0,1 km/h (0 Bft) S-SO 0,00 h 0,025 mm 0 W/m 14,9 C 17,2 C 0,5 km/h (0 Bft)
11/05/2007 00:00 16,2 C 89 % 1014,9 hPa 0,0 l/m 1,9 km/h (1 Bft) S-SO 0,00 h 0,025 mm 0 W/m 14,3 C 16,2 C 2,6 km/h (1 Bft)
11/05/2007 01:00 15,7 C 92 % 1014,7 hPa 0,0 l/m 5,1 km/h (1 Bft) SO 0,00 h 0,025 mm 0 W/m 14,4 C 15,7 C 6,4 km/h (2 Bft)
11/05/2007 02:00 15,2 C 93 % 1014,3 hPa 0,0 l/m 3,0 km/h (1 Bft) O-SO 0,00 h 0,025 mm 0 W/m 14,0 C 15,2 C 4,0 km/h (1 Bft)
11/05/2007 03:00 14,4 C 93 % 1013,9 hPa 0,0 l/m 2,5 km/h (1 Bft) NO 0,00 h 0,025 mm 0 W/m 13,3 C 14,4 C 3,9 km/h (1 Bft)
11/05/2007 04:00 14,0 C 93 % 1013,5 hPa 0,0 l/m 1,8 km/h (1 Bft) O-NO 0,00 h 0,025 mm 0 W/m 12,9 C 14,0 C 3,5 km/h (1 Bft)
11/05/2007 05:00 13,8 C 93 % 1013,2 hPa 0,0 l/m 0,1 km/h (0 Bft) O-NO 0,00 h 0,000 mm 0 W/m 12,7 C 13,8 C 0,3 km/h (0 Bft)
11/05/2007 06:00 13,8 C 93 % 1013,3 hPa 0,0 l/m 0,7 km/h (0 Bft) O-NO 0,05 h 0,000 mm 21 W/m 12,8 C 13,8 C 1,8 km/h (1 Bft)
11/05/2007 07:00 14,9 C 94 % 1013,5 hPa 0,0 l/m 0,7 km/h (0 Bft) N 0,02 h 0,025 mm 95 W/m 13,9 C 14,9 C 2,7 km/h (1 Bft)
11/05/2007 08:00 17,3 C 86 % 1013,9 hPa 0,0 l/m 0,8 km/h (0 Bft) N 0,88 h 0,051 mm 285 W/m 14,9 C 17,3 C 3,3 km/h (1 Bft)
11/05/2007 09:00 19,8 C 75 % 1014,0 hPa 0,0 l/m 3,0 km/h (1 Bft) E-NE 1,00 h 0,152 mm 485 W/m 15,3 C 19,8 C 6,0 km/h (2 Bft)
11/05/2007 10:00 21,0 C 72 % 1013,7 hPa 0,0 l/m 5,8 km/h (2 Bft) E 0,93 h 0,305 mm 595 W/m 15,8 C 21,0 C 9,5 km/h (2 Bft)
11/05/2007 11:00 21,1 C 74 % 1013,7 hPa 0,0 l/m 9,8 km/h (2 Bft) E 1,00 h 0,381 mm 751 W/m 16,2 C 21,1 C 14,6 km/h (3 Bft)
11/05/2007 12:00 21,2 C 72 % 1013,9 hPa 0,0 l/m 10,0 km/h (2 Bft) E 1,00 h 0,483 mm 859 W/m 16,0 C 21,2 C 15,7 km/h (3 Bft)
11/05/2007 13:00 21,9 C 71 % 1013,5 hPa 0,0 l/m 10,2 km/h (2 Bft) E 0,97 h 0,533 mm 884 W/m 16,3 C 21,9 C 16,5 km/h (3 Bft)
11/05/2007 14:00 21,9 C 70 % 1013,2 hPa 0,0 l/m 9,3 km/h (2 Bft) E-NE 0,95 h 0,533 mm 822 W/m 16,1 C 21,9 C 14,0 km/h (3 Bft)
11/05/2007 15:00 21,8 C 67 % 1012,9 hPa 0,0 l/m 9,6 km/h (2 Bft) E-NE 1,00 h 0,508 mm 748 W/m 15,4 C 21,8 C 15,0 km/h (3 Bft)
11/05/2007 16:00 21,3 C 68 % 1012,5 hPa 0,0 l/m 6,7 km/h (2 Bft) E 0,95 h 0,483 mm 609 W/m 15,2 C 21,3 C 11,0 km/h (2 Bft)
11/05/2007 17:00 21,3 C 71 % 1011,9 hPa 0,0 l/m 5,5 km/h (1 Bft) E 0,97 h 0,381 mm 446 W/m 15,9 C 21,3 C 8,8 km/h (2 Bft)
11/05/2007 18:00 20,2 C 74 % 1011,6 hPa 0,0 l/m 4,1 km/h (1 Bft) E 1,00 h 0,279 mm 289 W/m 15,4 C 20,2 C 7,1 km/h (2 Bft)
11/05/2007 19:00 19,4 C 78 % 1011,3 hPa 0,0 l/m 2,5 km/h (1 Bft) E-NE 0,55 h 0,178 mm 115 W/m 15,4 C 19,4 C 4,2 km/h (1 Bft)
11/05/2007 20:00 17,4 C 87 % 1011,4 hPa 0,0 l/m 0,1 km/h (0 Bft) E-SE 0,00 h 0,076 mm 19 W/m 15,2 C 17,4 C 0,8 km/h (0 Bft)
11/05/2007 21:00 16,5 C 90 % 1011,7 hPa 0,0 l/m 0,0 km/h (0 Bft) E-SE 0,00 h 0,000 mm 0 W/m 14,9 C 16,5 C 0,3 km/h (0 Bft)
11/05/2007 22:00 16,0 C 91 % 1012,1 hPa 0,0 l/m 0,0 km/h (0 Bft) E-SE 0,00 h 0,000 mm 0 W/m 14,5 C 16,0 C 0,1 km/h (0 Bft)
11/05/2007 23:00 15,7 C 92 % 1011,9 hPa 0,0 l/m 0,2 km/h (0 Bft) E-SE 0,00 h 0,000 mm 0 W/m 14,4 C 15,7 C 0,7 km/h (0 Bft)
12/05/2007 00:00 15,4 C 93 % 1011,8 hPa 0,0 l/m 0,1 km/h (0 Bft) E-SE 0,00 h 0,000 mm 0 W/m 14,2 C 15,4 C 0,3 km/h (0 Bft)
12/05/2007 01:00 15,2 C 93 % 1011,3 hPa 0,0 l/m 1,5 km/h (1 Bft) E-SE 0,00 h 0,000 mm 0 W/m 14,0 C 15,2 C 2,7 km/h (1 Bft)
12/05/2007 02:00 14,8 C 94 % 1010,9 hPa 0,0 l/m 2,4 km/h (1 Bft) NO 0,00 h 0,000 mm 0 W/m 13,8 C 14,8 C 4,1 km/h (1 Bft)
12/05/2007 03:00 14,8 C 94 % 1010,8 hPa 0,0 l/m 0,5 km/h (0 Bft) O-NO 0,00 h 0,000 mm 0 W/m 13,9 C 14,8 C 1,3 km/h (1 Bft)
12/05/2007 04:00 14,6 C 94 % 1010,8 hPa 0,0 l/m 0,8 km/h (0 Bft) NO 0,00 h 0,000 mm 0 W/m 13,6 C 14,6 C 1,7 km/h (1 Bft)
12/05/2007 05:00 14,1 C 94 % 1011,3 hPa 0,2 l/m 1,4 km/h (1 Bft) NO 0,00 h 0,000 mm 0 W/m 13,1 C 14,1 C 2,8 km/h (1 Bft)
12/05/2007 06:00 14,0 C 94 % 1011,5 hPa 0,0 l/m 1,0 km/h (0 Bft) NE 0,00 h 0,000 mm 14 W/m 13,1 C 14,0 C 2,1 km/h (1 Bft)
12/05/2007 07:00 15,2 C 95 % 1012,2 hPa 0,0 l/m 0,5 km/h (0 Bft) E-NE 0,07 h 0,000 mm 77 W/m 14,3 C 15,2 C 1,4 km/h (1 Bft)
12/05/2007 08:00 17,4 C 91 % 1012,7 hPa 0,0 l/m 1,9 km/h (1 Bft) E-NE 1,00 h 0,051 mm 313 W/m 16,0 C 17,4 C 4,1 km/h (1 Bft)
12/05/2007 09:00 19,6 C 76 % 1012,9 hPa 0,0 l/m 3,6 km/h (1 Bft) E 1,00 h 0,178 mm 502 W/m 15,4 C 19,6 C 6,3 km/h (2 Bft)
12/05/2007 10:00 21,0 C 73 % 1012,9 hPa 0,0 l/m 6,1 km/h (2 Bft) E 0,93 h 0,305 mm 651 W/m 16,0 C 21,0 C 9,4 km/h (2 Bft)
12/05/2007 11:00 21,5 C 73 % 1013,2 hPa 0,0 l/m 7,8 km/h (2 Bft) E 1,00 h 0,406 mm 761 W/m 16,3 C 21,5 C 12,6 km/h (3 Bft)
12/05/2007 12:00 22,1 C 71 % 1013,2 hPa 0,0 l/m 7,6 km/h (2 Bft) E 1,00 h 0,483 mm 851 W/m 16,6 C 22,1 C 12,5 km/h (3 Bft)
12/05/2007 13:00 22,2 C 71 % 1013,0 hPa 0,0 l/m 8,6 km/h (2 Bft) E 1,00 h 0,533 mm 864 W/m 16,8 C 22,2 C 14,1 km/h (3 Bft)
12/05/2007 14:00 22,3 C 70 % 1013,0 hPa 0,0 l/m 8,8 km/h (2 Bft) E 1,00 h 0,559 mm 770 W/m 16,6 C 22,3 C 14,5 km/h (3 Bft)
12/05/2007 15:00 22,0 C 68 % 1012,9 hPa 0,0 l/m 10,0 km/h (2 Bft) E 1,00 h 0,508 mm 744 W/m 16,0 C 22,0 C 15,8 km/h (3 Bft)
12/05/2007 16:00 21,9 C 73 % 1012,8 hPa 0,0 l/m 6,0 km/h (2 Bft) E 1,00 h 0,483 mm 655 W/m 16,7 C 21,9 C 11,5 km/h (2 Bft)
12/05/2007 17:00 21,5 C 75 % 1012,8 hPa 0,0 l/m 3,7 km/h (1 Bft) E 1,00 h 0,406 mm 517 W/m 16,9 C 21,5 C 7,7 km/h (2 Bft)
12/05/2007 18:00 20,5 C 79 % 1012,8 hPa 0,0 l/m 4,5 km/h (1 Bft) E 1,00 h 0,330 mm 308 W/m 16,8 C 20,5 C 8,1 km/h (2 Bft)
12/05/2007 19:00 19,2 C 83 % 1012,8 hPa 0,0 l/m 2,2 km/h (1 Bft) E-SE 0,32 h 0,203 mm 95 W/m 16,2 C 19,2 C 4,9 km/h (1 Bft)
12/05/2007 20:00 17,7 C 88 % 1012,7 hPa 0,0 l/m 0,4 km/h (0 Bft) E-SE 0,03 h 0,076 mm 17 W/m 15,7 C 17,7 C 1,4 km/h (1 Bft)
12/05/2007 21:00 16,9 C 91 % 1012,9 hPa 0,0 l/m 0,3 km/h (0 Bft) E-SE 0,00 h 0,025 mm 0 W/m 15,4 C 16,9 C 1,3 km/h (1 Bft)
12/05/2007 22:00 16,7 C 92 % 1013,4 hPa 0,0 l/m 0,7 km/h (0 Bft) S-SE 0,00 h 0,000 mm 0 W/m 15,4 C 16,7 C 1,5 km/h (1 Bft)
12/05/2007 23:00 16,5 C 93 % 1013,6 hPa 0,0 l/m 0,0 km/h (0 Bft) N 0,00 h 0,025 mm 0 W/m 15,4 C 16,5 C 0,0 km/h (0 Bft)
13/05/2007 00:00 16,4 C 93 % 1013,7 hPa 0,0 l/m 1,2 km/h (1 Bft) O-NO 0,00 h 0,000 mm 0 W/m 15,2 C 16,4 C 2,9 km/h (1 Bft)
13/05/2007 01:00 16,3 C 93 % 1013,8 hPa 0,0 l/m 1,1 km/h (0 Bft) NO 0,00 h 0,000 mm 0 W/m 15,1 C 16,3 C 2,5 km/h (1 Bft)
13/05/2007 02:00 15,8 C 93 % 1013,7 hPa 0,0 l/m 2,6 km/h (1 Bft) NO 0,00 h 0,000 mm 0 W/m 14,7 C 15,8 C 4,9 km/h (1 Bft)
13/05/2007 03:00 15,8 C 93 % 1013,7 hPa 0,0 l/m 2,9 km/h (1 Bft) NO 0,00 h 0,025 mm 0 W/m 14,7 C 15,8 C 5,0 km/h (1 Bft)
13/05/2007 04:00 15,9 C 93 % 1013,5 hPa 0,0 l/m 1,2 km/h (1 Bft) N-NO 0,00 h 0,025 mm 0 W/m 14,8 C 15,9 C 3,2 km/h (1 Bft)
13/05/2007 05:00 15,7 C 92 % 1013,7 hPa 0,0 l/m 1,0 km/h (0 Bft) NO 0,00 h 0,000 mm 0 W/m 14,5 C 15,7 C 2,8 km/h (1 Bft)
13/05/2007 06:00 15,2 C 91 % 1014,1 hPa 0,0 l/m 1,3 km/h (1 Bft) N-NO 0,02 h 0,000 mm 19 W/m 13,8 C 15,2 C 3,2 km/h (1 Bft)
13/05/2007 07:00 15,9 C 90 % 1014,3 hPa 0,0 l/m 1,0 km/h (0 Bft) N 0,43 h 0,025 mm 122 W/m 14,2 C 15,9 C 3,0 km/h (1 Bft)
13/05/2007 08:00 18,6 C 77 % 1014,3 hPa 0,0 l/m 5,0 km/h (1 Bft) NE 1,00 h 0,076 mm 315 W/m 14,5 C 18,6 C 7,9 km/h (2 Bft)
13/05/2007 09:00 20,2 C 77 % 1014,6 hPa 0,0 l/m 9,2 km/h (2 Bft) E-NE 0,70 h 0,203 mm 423 W/m 16,0 C 20,2 C 13,7 km/h (3 Bft)
13/05/2007 10:00 20,8 C 77 % 1014,9 hPa 0,0 l/m 10,5 km/h (2 Bft) E-NE 0,53 h 0,279 mm 455 W/m 16,7 C 20,8 C 15,3 km/h (3 Bft)
13/05/2007 11:00 20,6 C 79 % 1015,1 hPa 0,0 l/m 9,7 km/h (2 Bft) E 0,10 h 0,279 mm 374 W/m 16,8 C 20,6 C 15,2 km/h (3 Bft)
13/05/2007 12:00 21,2 C 77 % 1015,4 hPa 0,0 l/m 10,7 km/h (2 Bft) E 0,42 h 0,305 mm 555 W/m 16,9 C 21,2 C 16,0 km/h (3 Bft)
13/05/2007 13:00 21,8 C 74 % 1015,2 hPa 0,0 l/m 9,1 km/h (2 Bft) E 0,58 h 0,406 mm 666 W/m 17,0 C 21,8 C 14,2 km/h (3 Bft)
13/05/2007 14:00 22,2 C 70 % 1014,9 hPa 0,0 l/m 8,5 km/h (2 Bft) E 1,00 h 0,432 mm 850 W/m 16,4 C 22,2 C 13,6 km/h (3 Bft)
13/05/2007 15:00 22,1 C 70 % 1014,8 hPa 0,0 l/m 8,8 km/h (2 Bft) E-NE 1,00 h 0,533 mm 758 W/m 16,3 C 22,1 C 13,7 km/h (3 Bft)
13/05/2007 16:00 21,8 C 69 % 1014,6 hPa 0,0 l/m 5,8 km/h (2 Bft) E 1,00 h 0,483 mm 644 W/m 16,0 C 21,8 C 9,6 km/h (2 Bft)
13/05/2007 17:00 21,4 C 72 % 1014,4 hPa 0,0 l/m 4,6 km/h (1 Bft) E 1,00 h 0,406 mm 479 W/m 16,1 C 21,4 C 7,8 km/h (2 Bft)
13/05/2007 18:00 21,0 C 73 % 1014,3 hPa 0,0 l/m 3,5 km/h (1 Bft) E 0,98 h 0,305 mm 301 W/m 16,0 C 21,0 C 5,8 km/h (2 Bft)
13/05/2007 19:00 19,6 C 78 % 1013,9 hPa 0,0 l/m 1,7 km/h (1 Bft) E 0,32 h 0,203 mm 97 W/m 15,7 C 19,6 C 3,5 km/h (1 Bft)
13/05/2007 20:00 17,7 C 82 % 1013,9 hPa 0,0 l/m 0,9 km/h (0 Bft) E 0,00 h 0,076 mm 12 W/m 14,6 C 17,7 C 2,6 km/h (1 Bft)
13/05/2007 21:00 17,2 C 80 % 1014,5 hPa 0,0 l/m 0,3 km/h (0 Bft) SE 0,00 h 0,000 mm 0 W/m 13,8 C 17,2 C 1,1 km/h (0 Bft)
13/05/2007 22:00 16,6 C 83 % 1015,0 hPa 0,0 l/m 0,8 km/h (0 Bft) SE 0,00 h 0,000 mm 0 W/m 13,6 C 16,6 C 2,1 km/h (1 Bft)
13/05/2007 23:00 16,3 C 83 % 1014,8 hPa 0,0 l/m 2,3 km/h (1 Bft) NO 0,00 h 0,025 mm 0 W/m 13,4 C 16,3 C 4,3 km/h (1 Bft)
Min-Date _ 08/05/07 07/05/07 12/05/07 - 07/05/07 - - - - 07/05/07 08/05/07 07/05/07
_ Min-Heure 05:59 12:44 03:00 - 00:00 - - - - 13:57 05:59 00:00
Minimum _ 13,4 C 29 % 1010,7 hPa - 0,0 km/h (0 Bft) - - - - 5,2 C 13,4 C 0,0 km/h (0 Bft)
Max-Date _ 07/05/07 09/05/07 10/05/07 12/05/07 07/05/07 - 07/05/07 07/05/07 11/05/07 12/05/07 07/05/07 07/05/07
_ Max-Heure 12:50 07:13 11:30 05:19 15:56 - 06:27 14:00 13:47 17:36 12:50 12:56
Maximum _ 24,9 C 97 % 1016,7 hPa 0,2 l/m 24,1 km/h
S (4 Bft)
- 0,02 h 0,711 mm 1016 W/m 17,8 C 24,9 C 35,4 km/h
S (5 Bft)
Moyenne _ 18,4 C 77 % 1013,9 hPa #0,2 l/m 4,4 km/h (1 Bft) E #72:46 h #32,343 mm 450 W/m 13,8 C 18,4 C 7,1 km/h (2 Bft)
Roquefort les pins